Cleveland, Ohio
Traffic Map
Current Weather Conditions
Cleveland, Ohio
Broken Clouds
Broken Clouds
54°
Feels Like: 54°
Wind Chill: 54° Ceiling: 25000
Heat Index: 54° Visibility: 10mi
Dew Point: 27° Wind: 17mph
Humidity: 35% Direction: 160° (SSE)
Pressure: 30.36in Gusts: 23mph
Raw Report DataKBKL 171553Z 16015G20KT 10SM BKN250 12/M03 A3036 RMK AO2 SLP283 T01221028
Traffic Incident Summary
Active as of:
Severity:
Category:
InformationThere was an issue retrieving the traffic information for this location. Please try a different location or try again shortly.
Advertisements
At Last! Intellicast now available for iPhone and Android